Oosterschelde — PGNP — position and weather

sailwx.info

Track history (hours):
 
Tides and Currents Weather Stations Pressure Air Temp Water Temp Dewpoint Dewpoint Depression Visibility Wind Speed Wind Dir Waves Ship Positions

Oosterschelde (Netherlands)

Ship's website: http://www.oosterschelde.nl/indexuk.htm

Last reported at 2019-Apr-20 23:36 UTC. Time now 2019-Apr-25 16:24 UTC.
Position N 41°44' W 022°23'.

Length 49 m; draft 2.9 m.

Type: Sailing vessel. MMSI: 246010985.

Date/timePositionNaut miles runAvg speedWind from/ knotsBaromVisibWave heightAir tempDewpointWater temp
2019-Apr-20 23:36N 41°44' W 022°23'213 4.7
2019-Apr-19 02:40N 38°34' W 024°27'5 6.2
2019-Apr-19 01:55N 38°29' W 024°28'5 6.2
2019-Apr-19 01:08N 38°24' W 024°28'1 6.4
2019-Apr-19 00:58N 38°23' W 024°28'3 6.2
2019-Apr-19 00:28N 38°20' W 024°28'3 6.1
2019-Apr-19 00:00N 38°17' W 024°29'3 6.0
2019-Apr-18 23:31N 38°14' W 024°29'3 5.9
2019-Apr-18 23:00N 38°11' W 024°29'3 5.9
2019-Apr-18 22:30N 38°09' W 024°30'3 6.1
2019-Apr-18 22:01N 38°06' W 024°32'3 6.4
2019-Apr-18 21:30N 38°04' W 024°35'3 6.4
2019-Apr-18 21:00N 38°01' W 024°37'3 5.8
2019-Apr-18 20:31N 37°59' W 024°40'3 5.8
2019-Apr-18 20:00N 37°57' W 024°42'3 5.8
2019-Apr-18 19:31N 37°55' W 024°45'3 5.5
2019-Apr-18 19:00N 37°53' W 024°48'3 5.4
2019-Apr-18 18:31N 37°51' W 024°50'2 5.0
2019-Apr-18 18:01N 37°50' W 024°52'3 5.1
2019-Apr-18 17:31N 37°48' W 024°55'3 5.2
2019-Apr-18 17:01N 37°46' W 024°57'3 5.3
2019-Apr-18 16:31N 37°44' W 024°60'2 3.8
2019-Apr-18 16:00N 37°43' W 025°01'2 3.4
2019-Apr-18 15:31N 37°42' W 025°03'2 3.9
2019-Apr-18 15:01N 37°41' W 025°05'3 5.4
2019-Apr-18 14:30N 37°41' W 025°08'3 6.7
2019-Apr-18 14:00N 37°42' W 025°12'3 6.0
2019-Apr-18 13:31N 37°42' W 025°16'3 6.2
2019-Apr-18 13:01N 37°42' W 025°20'4 7.0
2019-Apr-18 12:30N 37°42' W 025°25'3 6.9
2019-Apr-18 12:00N 37°42' W 025°29'3 6.5
2019-Apr-18 11:30N 37°42' W 025°33'3 5.5
2019-Apr-18 11:01N 37°43' W 025°36'2 3.4
2019-Apr-18 10:30N 37°43' W 025°38'1 2.9
2019-Apr-18 10:01N 37°44' W 025°40'0 0.0
2019-Apr-18 09:30N 37°44' W 025°40'0 0.0
2019-Apr-18 09:01N 37°44' W 025°40'0 0.0
2019-Apr-18 08:31N 37°44' W 025°40'0 0.0
2019-Apr-18 08:01N 37°44' W 025°40'0 0.0
2019-Apr-18 07:31N 37°44' W 025°40'0 0.0
2019-Apr-18 07:01N 37°44' W 025°40'0 0.0
2019-Apr-18 06:31N 37°44' W 025°40'0 0.0
2019-Apr-18 06:01N 37°44' W 025°40'0 0.0
2019-Apr-18 05:31N 37°44' W 025°40'0 0.0
2019-Apr-18 05:01N 37°44' W 025°40'0 0.0
2019-Apr-18 04:30N 37°44' W 025°40'0 0.0
2019-Apr-18 04:01N 37°44' W 025°40'0 0.0
2019-Apr-18 03:31N 37°44' W 025°40'0 0.0
2019-Apr-18 03:00N 37°44' W 025°40'0 0.0
2019-Apr-18 02:31N 37°44' W 025°40'0 0.0
2019-Apr-18 02:01N 37°44' W 025°40'0 0.0
2019-Apr-18 01:31N 37°44' W 025°40'0 0.0
2019-Apr-18 01:01N 37°44' W 025°40'0 0.0
2019-Apr-18 00:30N 37°44' W 025°40'0 0.0
2019-Apr-18 00:00N 37°44' W 025°40'0 0.0
2019-Apr-17 23:31N 37°44' W 025°40'0 0.0
2019-Apr-17 23:01N 37°44' W 025°40'0 0.0
2019-Apr-17 22:31N 37°44' W 025°40'0 0.0
2019-Apr-17 22:01N 37°44' W 025°40'0 0.0
2019-Apr-17 21:31N 37°44' W 025°40'0 0.0
2019-Apr-17 21:01N 37°44' W 025°40'0 0.0
2019-Apr-17 20:31N 37°44' W 025°40'0 0.0
2019-Apr-17 20:01N 37°44' W 025°40'0 0.0
2019-Apr-17 19:31N 37°44' W 025°40'0 0.0
2019-Apr-17 19:01N 37°44' W 025°40'0 0.0
2019-Apr-17 18:31N 37°44' W 025°40'0 0.0
2019-Apr-17 18:01N 37°44' W 025°40'0 0.0
2019-Apr-17 17:31N 37°44' W 025°40'0 0.0
2019-Apr-17 17:01N 37°44' W 025°40'0 0.0
2019-Apr-17 16:30N 37°44' W 025°40'0 0.0
2019-Apr-17 16:01N 37°44' W 025°40'0 0.0
2019-Apr-17 15:31N 37°44' W 025°40'0 0.0
2019-Apr-17 15:00N 37°44' W 025°40'0 0.0
2019-Apr-17 14:31N 37°44' W 025°40'0 0.0
2019-Apr-17 14:00N 37°44' W 025°40'0 0.0
2019-Apr-17 13:30N 37°44' W 025°40'0 0.0
2019-Apr-17 13:01N 37°44' W 025°40'0 0.0
2019-Apr-17 12:31N 37°44' W 025°40'0 0.0
2019-Apr-17 12:00N 37°44' W 025°40'0 0.0
2019-Apr-17 11:31N 37°44' W 025°40'0 0.0
2019-Apr-17 11:01N 37°44' W 025°40'0 0.0
2019-Apr-17 10:30N 37°44' W 025°40'0 0.0
2019-Apr-17 10:01N 37°44' W 025°40'0 0.0
2019-Apr-17 09:31N 37°44' W 025°40'0 0.0
2019-Apr-17 09:01N 37°44' W 025°40'0 0.0
2019-Apr-17 08:31N 37°44' W 025°40'0 0.0
2019-Apr-17 08:01N 37°44' W 025°40'0 0.0
2019-Apr-17 07:31N 37°44' W 025°40'0 0.0
2019-Apr-17 07:01N 37°44' W 025°40'0 0.0
2019-Apr-17 06:31N 37°44' W 025°40'0 0.0
2019-Apr-17 06:01N 37°44' W 025°40'0 0.0
2019-Apr-17 05:30N 37°44' W 025°40'0 0.0
2019-Apr-17 05:01N 37°44' W 025°40'0 0.0
2019-Apr-17 04:31N 37°44' W 025°40'0 0.0
2019-Apr-17 04:01N 37°44' W 025°40'0 0.0
2019-Apr-17 03:31N 37°44' W 025°40'0 0.0
2019-Apr-17 03:01N 37°44' W 025°40'0 0.0
2019-Apr-17 02:31N 37°44' W 025°40'0 0.0
2019-Apr-17 02:01N 37°44' W 025°40'0 0.0
2019-Apr-17 01:31N 37°44' W 025°40'0 0.0
2019-Apr-17 01:01N 37°44' W 025°40'0 0.0
2019-Apr-17 00:31N 37°44' W 025°40'0 0.0
2019-Apr-17 00:01N 37°44' W 025°40'0 0.0
2019-Apr-16 23:31N 37°44' W 025°40'0 0.0
2019-Apr-16 23:01N 37°44' W 025°40'0 0.0
2019-Apr-16 22:31N 37°44' W 025°40'0 0.0
2019-Apr-16 22:01N 37°44' W 025°40'0 0.0
2019-Apr-16 21:31N 37°44' W 025°40'0 0.0
2019-Apr-16 21:01N 37°44' W 025°40'0 0.0
2019-Apr-16 20:31N 37°44' W 025°40'0 0.0
2019-Apr-16 20:01N 37°44' W 025°40'0 0.0
2019-Apr-16 19:31N 37°44' W 025°40'0 0.0
2019-Apr-16 19:01N 37°44' W 025°40'0 0.0
2019-Apr-16 18:31N 37°44' W 025°40'0 0.0
2019-Apr-16 18:01N 37°44' W 025°40'0 0.0
2019-Apr-16 17:30N 37°44' W 025°40'0 0.0
2019-Apr-16 17:01N 37°44' W 025°40'0 0.0
2019-Apr-16 16:31N 37°44' W 025°40'0 0.0
2019-Apr-16 16:01N 37°44' W 025°40'0 0.0
2019-Apr-16 15:31N 37°44' W 025°40'0 0.0
2019-Apr-16 15:01N 37°44' W 025°40'0 0.0
2019-Apr-16 14:31N 37°44' W 025°40'0 0.0
2019-Apr-16 14:01N 37°44' W 025°40'0 0.0
2019-Apr-16 13:31N 37°44' W 025°40'0 0.0
2019-Apr-16 13:01N 37°44' W 025°40'0 0.0
2019-Apr-16 12:31N 37°44' W 025°40'0 0.0
2019-Apr-16 12:01N 37°44' W 025°40'0 0.0
2019-Apr-16 11:30N 37°44' W 025°40'0 0.0
2019-Apr-16 11:01N 37°44' W 025°40'0 0.0
2019-Apr-16 10:31N 37°44' W 025°40'0 0.9
2019-Apr-16 10:01N 37°44' W 025°39'3 6.8
2019-Apr-16 09:31N 37°42' W 025°43'4 7.4
2019-Apr-16 09:00N 37°39' W 025°46'4 7.1
2019-Apr-16 08:31N 37°37' W 025°49'3 6.7
2019-Apr-16 08:00N 37°35' W 025°53'4 7.4
2019-Apr-16 07:30N 37°33' W 025°57'3 7.1
2019-Apr-16 07:00N 37°31' W 026°00'4 7.1
2019-Apr-16 06:30N 37°29' W 026°04'4 7.5
2019-Apr-16 06:00N 37°26' W 026°07'4 7.6
2019-Apr-16 05:30N 37°24' W 026°11'4 7.6
2019-Apr-16 05:00N 37°21' W 026°14'3 6.9
2019-Apr-16 04:30N 37°18' W 026°17'4 7.2
2019-Apr-16 04:00N 37°15' W 026°19'3 6.8
2019-Apr-16 03:30N 37°12' W 026°21'4 7.1
2019-Apr-16 03:00N 37°09' W 026°24'4 7.0
2019-Apr-16 02:30N 37°06' W 026°26'4 7.8
2019-Apr-16 02:00N 37°03' W 026°29'3 6.7
2019-Apr-16 01:30N 37°00' W 026°31'3 5.0
2019-Apr-16 01:00N 36°58' W 026°32'3 6.1
2019-Apr-16 00:30N 36°55' W 026°34'3 6.6
2019-Apr-16 00:00N 36°52' W 026°35'3 6.8
2019-Apr-15 23:30N 36°49' W 026°36'4 7.8
2019-Apr-15 23:00N 36°45' W 026°37'  
Track history (hours):
 
Tides and Currents Weather Stations Pressure Air Temp Water Temp Dewpoint Dewpoint Depression Visibility Wind Speed Wind Dir Waves Ship Positions

Oosterschelde (Netherlands)

Ship's website: http://www.oosterschelde.nl/indexuk.htm

Last reported at 2019-Apr-20 23:36 UTC. Time now 2019-Apr-25 16:24 UTC.
Position N 41°44' W 022°23'.

Length 49 m; draft 2.9 m.

Type: Sailing vessel. MMSI: 246010985.

Date/timePositionNaut miles runAvg speedWind from/ knotsBaromVisibWave heightAir tempDewpointWater temp
2019-Apr-20 23:36N 41°44' W 022°23'213 4.7
2019-Apr-19 02:40N 38°34' W 024°27'5 6.2
2019-Apr-19 01:55N 38°29' W 024°28'5 6.2
2019-Apr-19 01:08N 38°24' W 024°28'1 6.4
2019-Apr-19 00:58N 38°23' W 024°28'3 6.2
2019-Apr-19 00:28N 38°20' W 024°28'3 6.1
2019-Apr-19 00:00N 38°17' W 024°29'3 6.0
2019-Apr-18 23:31N 38°14' W 024°29'3 5.9
2019-Apr-18 23:00N 38°11' W 024°29'3 5.9
2019-Apr-18 22:30N 38°09' W 024°30'3 6.1
2019-Apr-18 22:01N 38°06' W 024°32'3 6.4
2019-Apr-18 21:30N 38°04' W 024°35'3 6.4
2019-Apr-18 21:00N 38°01' W 024°37'3 5.8
2019-Apr-18 20:31N 37°59' W 024°40'3 5.8
2019-Apr-18 20:00N 37°57' W 024°42'3 5.8
2019-Apr-18 19:31N 37°55' W 024°45'3 5.5
2019-Apr-18 19:00N 37°53' W 024°48'3 5.4
2019-Apr-18 18:31N 37°51' W 024°50'2 5.0
2019-Apr-18 18:01N 37°50' W 024°52'3 5.1
2019-Apr-18 17:31N 37°48' W 024°55'3 5.2
2019-Apr-18 17:01N 37°46' W 024°57'3 5.3
2019-Apr-18 16:31N 37°44' W 024°60'2 3.8
2019-Apr-18 16:00N 37°43' W 025°01'2 3.4
2019-Apr-18 15:31N 37°42' W 025°03'2 3.9
2019-Apr-18 15:01N 37°41' W 025°05'3 5.4
2019-Apr-18 14:30N 37°41' W 025°08'3 6.7
2019-Apr-18 14:00N 37°42' W 025°12'3 6.0
2019-Apr-18 13:31N 37°42' W 025°16'3 6.2
2019-Apr-18 13:01N 37°42' W 025°20'4 7.0
2019-Apr-18 12:30N 37°42' W 025°25'3 6.9
2019-Apr-18 12:00N 37°42' W 025°29'3 6.5
2019-Apr-18 11:30N 37°42' W 025°33'3 5.5
2019-Apr-18 11:01N 37°43' W 025°36'2 3.4
2019-Apr-18 10:30N 37°43' W 025°38'1 2.9
2019-Apr-18 10:01N 37°44' W 025°40'0 0.0
2019-Apr-18 09:30N 37°44' W 025°40'0 0.0
2019-Apr-18 09:01N 37°44' W 025°40'0 0.0
2019-Apr-18 08:31N 37°44' W 025°40'0 0.0
2019-Apr-18 08:01N 37°44' W 025°40'0 0.0
2019-Apr-18 07:31N 37°44' W 025°40'0 0.0
2019-Apr-18 07:01N 37°44' W 025°40'0 0.0
2019-Apr-18 06:31N 37°44' W 025°40'0 0.0
2019-Apr-18 06:01N 37°44' W 025°40'0 0.0
2019-Apr-18 05:31N 37°44' W 025°40'0 0.0
2019-Apr-18 05:01N 37°44' W 025°40'0 0.0
2019-Apr-18 04:30N 37°44' W 025°40'0 0.0
2019-Apr-18 04:01N 37°44' W 025°40'0 0.0
2019-Apr-18 03:31N 37°44' W 025°40'0 0.0
2019-Apr-18 03:00N 37°44' W 025°40'0 0.0
2019-Apr-18 02:31N 37°44' W 025°40'0 0.0
2019-Apr-18 02:01N 37°44' W 025°40'0 0.0
2019-Apr-18 01:31N 37°44' W 025°40'0 0.0
2019-Apr-18 01:01N 37°44' W 025°40'0 0.0
2019-Apr-18 00:30N 37°44' W 025°40'0 0.0
2019-Apr-18 00:00N 37°44' W 025°40'0 0.0
2019-Apr-17 23:31N 37°44' W 025°40'0 0.0
2019-Apr-17 23:01N 37°44' W 025°40'0 0.0
2019-Apr-17 22:31N 37°44' W 025°40'0 0.0
2019-Apr-17 22:01N 37°44' W 025°40'0 0.0
2019-Apr-17 21:31N 37°44' W 025°40'0 0.0
2019-Apr-17 21:01N 37°44' W 025°40'0 0.0
2019-Apr-17 20:31N 37°44' W 025°40'0 0.0
2019-Apr-17 20:01N 37°44' W 025°40'0 0.0
2019-Apr-17 19:31N 37°44' W 025°40'0 0.0
2019-Apr-17 19:01N 37°44' W 025°40'0 0.0
2019-Apr-17 18:31N 37°44' W 025°40'0 0.0
2019-Apr-17 18:01N 37°44' W 025°40'0 0.0
2019-Apr-17 17:31N 37°44' W 025°40'0 0.0
2019-Apr-17 17:01N 37°44' W 025°40'0 0.0
2019-Apr-17 16:30N 37°44' W 025°40'0 0.0
2019-Apr-17 16:01N 37°44' W 025°40'0 0.0
2019-Apr-17 15:31N 37°44' W 025°40'0 0.0
2019-Apr-17 15:00N 37°44' W 025°40'0 0.0
2019-Apr-17 14:31N 37°44' W 025°40'0 0.0
2019-Apr-17 14:00N 37°44' W 025°40'0 0.0
2019-Apr-17 13:30N 37°44' W 025°40'0 0.0
2019-Apr-17 13:01N 37°44' W 025°40'0 0.0
2019-Apr-17 12:31N 37°44' W 025°40'0 0.0
2019-Apr-17 12:00N 37°44' W 025°40'0 0.0
2019-Apr-17 11:31N 37°44' W 025°40'0 0.0
2019-Apr-17 11:01N 37°44' W 025°40'0 0.0
2019-Apr-17 10:30N 37°44' W 025°40'0 0.0
2019-Apr-17 10:01N 37°44' W 025°40'0 0.0
2019-Apr-17 09:31N 37°44' W 025°40'0 0.0
2019-Apr-17 09:01N 37°44' W 025°40'0 0.0
2019-Apr-17 08:31N 37°44' W 025°40'0 0.0
2019-Apr-17 08:01N 37°44' W 025°40'0 0.0
2019-Apr-17 07:31N 37°44' W 025°40'0 0.0
2019-Apr-17 07:01N 37°44' W 025°40'0 0.0
2019-Apr-17 06:31N 37°44' W 025°40'0 0.0
2019-Apr-17 06:01N 37°44' W 025°40'0 0.0
2019-Apr-17 05:30N 37°44' W 025°40'0 0.0
2019-Apr-17 05:01N 37°44' W 025°40'0 0.0
2019-Apr-17 04:31N 37°44' W 025°40'0 0.0
2019-Apr-17 04:01N 37°44' W 025°40'0 0.0
2019-Apr-17 03:31N 37°44' W 025°40'0 0.0
2019-Apr-17 03:01N 37°44' W 025°40'0 0.0
2019-Apr-17 02:31N 37°44' W 025°40'0 0.0
2019-Apr-17 02:01N 37°44' W 025°40'0 0.0
2019-Apr-17 01:31N 37°44' W 025°40'0 0.0
2019-Apr-17 01:01N 37°44' W 025°40'0 0.0
2019-Apr-17 00:31N 37°44' W 025°40'0 0.0
2019-Apr-17 00:01N 37°44' W 025°40'0 0.0
2019-Apr-16 23:31N 37°44' W 025°40'0 0.0
2019-Apr-16 23:01N 37°44' W 025°40'0 0.0
2019-Apr-16 22:31N 37°44' W 025°40'0 0.0
2019-Apr-16 22:01N 37°44' W 025°40'0 0.0
2019-Apr-16 21:31N 37°44' W 025°40'0 0.0
2019-Apr-16 21:01N 37°44' W 025°40'0 0.0
2019-Apr-16 20:31N 37°44' W 025°40'0 0.0
2019-Apr-16 20:01N 37°44' W 025°40'0 0.0
2019-Apr-16 19:31N 37°44' W 025°40'0 0.0
2019-Apr-16 19:01N 37°44' W 025°40'0 0.0
2019-Apr-16 18:31N 37°44' W 025°40'0 0.0
2019-Apr-16 18:01N 37°44' W 025°40'0 0.0
2019-Apr-16 17:30N 37°44' W 025°40'0 0.0
2019-Apr-16 17:01N 37°44' W 025°40'0 0.0
2019-Apr-16 16:31N 37°44' W 025°40'0 0.0
2019-Apr-16 16:01N 37°44' W 025°40'0 0.0
2019-Apr-16 15:31N 37°44' W 025°40'0 0.0
2019-Apr-16 15:01N 37°44' W 025°40'0 0.0
2019-Apr-16 14:31N 37°44' W 025°40'0 0.0
2019-Apr-16 14:01N 37°44' W 025°40'0 0.0
2019-Apr-16 13:31N 37°44' W 025°40'0 0.0
2019-Apr-16 13:01N 37°44' W 025°40'0 0.0
2019-Apr-16 12:31N 37°44' W 025°40'0 0.0
2019-Apr-16 12:01N 37°44' W 025°40'0 0.0
2019-Apr-16 11:30N 37°44' W 025°40'0 0.0
2019-Apr-16 11:01N 37°44' W 025°40'0 0.0
2019-Apr-16 10:31N 37°44' W 025°40'0 0.9
2019-Apr-16 10:01N 37°44' W 025°39'3 6.8
2019-Apr-16 09:31N 37°42' W 025°43'4 7.4
2019-Apr-16 09:00N 37°39' W 025°46'4 7.1
2019-Apr-16 08:31N 37°37' W 025°49'3 6.7
2019-Apr-16 08:00N 37°35' W 025°53'4 7.4
2019-Apr-16 07:30N 37°33' W 025°57'3 7.1
2019-Apr-16 07:00N 37°31' W 026°00'4 7.1
2019-Apr-16 06:30N 37°29' W 026°04'4 7.5
2019-Apr-16 06:00N 37°26' W 026°07'4 7.6
2019-Apr-16 05:30N 37°24' W 026°11'4 7.6
2019-Apr-16 05:00N 37°21' W 026°14'3 6.9
2019-Apr-16 04:30N 37°18' W 026°17'4 7.2
2019-Apr-16 04:00N 37°15' W 026°19'3 6.8
2019-Apr-16 03:30N 37°12' W 026°21'4 7.1
2019-Apr-16 03:00N 37°09' W 026°24'4 7.0
2019-Apr-16 02:30N 37°06' W 026°26'4 7.8
2019-Apr-16 02:00N 37°03' W 026°29'3 6.7
2019-Apr-16 01:30N 37°00' W 026°31'3 5.0
2019-Apr-16 01:00N 36°58' W 026°32'3 6.1
2019-Apr-16 00:30N 36°55' W 026°34'3 6.6
2019-Apr-16 00:00N 36°52' W 026°35'3 6.8
2019-Apr-15 23:30N 36°49' W 026°36'4 7.8
2019-Apr-15 23:00N 36°45' W 026°37'  

Dump ship's entire track history